sensor_id;sensor_type;location;lat;lon;timestamp;pressure;altitude;pressure_sealevel;temperature;humidity
23261;BME280;11799;47.740;-3.390;2022-10-10T00:00:31;101001.63;;;15.55;79.55
23261;BME280;11799;47.740;-3.390;2022-10-10T00:02:57;101003.59;;;15.52;79.72
23261;BME280;11799;47.740;-3.390;2022-10-10T00:05:22;101005.25;;;15.53;80.25
23261;BME280;11799;47.740;-3.390;2022-10-10T00:07:48;100998.97;;;15.55;80.09
23261;BME280;11799;47.740;-3.390;2022-10-10T00:10:14;100991.97;;;15.53;80.45
23261;BME280;11799;47.740;-3.390;2022-10-10T00:12:39;101006.09;;;15.54;80.31
23261;BME280;11799;47.740;-3.390;2022-10-10T00:15:05;101006.09;;;15.54;80.14
23261;BME280;11799;47.740;-3.390;2022-10-10T00:17:31;101006.94;;;15.55;80.68
23261;BME280;11799;47.740;-3.390;2022-10-10T00:19:57;101007.78;;;15.55;80.40
23261;BME280;11799;47.740;-3.390;2022-10-10T00:22:22;101014.94;;;15.55;80.59
23261;BME280;11799;47.740;-3.390;2022-10-10T00:24:48;101006.41;;;15.51;80.78
23261;BME280;11799;47.740;-3.390;2022-10-10T00:27:13;101013.25;;;15.53;80.72
23261;BME280;11799;47.740;-3.390;2022-10-10T00:29:39;101010.59;;;15.53;80.89
23261;BME280;11799;47.740;-3.390;2022-10-10T00:32:05;101014.38;;;15.51;80.88
23261;BME280;11799;47.740;-3.390;2022-10-10T00:34:30;101010.75;;;15.52;80.99
23261;BME280;11799;47.740;-3.390;2022-10-10T00:36:56;101024.88;;;15.52;80.70
23261;BME280;11799;47.740;-3.390;2022-10-10T00:39:21;101009.75;;;15.53;80.80
23261;BME280;11799;47.740;-3.390;2022-10-10T00:41:47;101028.38;;;15.53;81.18
23261;BME280;11799;47.740;-3.390;2022-10-10T00:44:14;101034.53;;;15.53;81.46
23261;BME280;11799;47.740;-3.390;2022-10-10T00:46:40;101025.72;;;15.53;81.69
23261;BME280;11799;47.740;-3.390;2022-10-10T00:49:11;101028.09;;;15.56;81.85
23261;BME280;11799;47.740;-3.390;2022-10-10T00:51:39;101032.47;;;15.57;82.24
23261;BME280;11799;47.740;-3.390;2022-10-10T00:54:08;101028.81;;;15.58;81.83
23261;BME280;11799;47.740;-3.390;2022-10-10T00:56:42;101027.13;;;15.57;82.06
23261;BME280;11799;47.740;-3.390;2022-10-10T00:59:09;101025.00;;;15.61;82.11
23261;BME280;11799;47.740;-3.390;2022-10-10T01:01:38;101025.00;;;15.61;82.45
23261;BME280;11799;47.740;-3.390;2022-10-10T01:04:04;101034.66;;;15.62;82.57
23261;BME280;11799;47.740;-3.390;2022-10-10T01:06:32;101031.16;;;15.61;82.17
23261;BME280;11799;47.740;-3.390;2022-10-10T01:08:58;101035.34;;;15.64;82.26
23261;BME280;11799;47.740;-3.390;2022-10-10T01:11:40;101025.41;;;15.66;82.29
23261;BME280;11799;47.740;-3.390;2022-10-10T01:17:29;101033.38;;;15.66;82.52
23261;BME280;11799;47.740;-3.390;2022-10-10T01:22:43;101039.84;;;15.63;82.52
23261;BME280;11799;47.740;-3.390;2022-10-10T01:28:10;101044.03;;;15.66;82.60
23261;BME280;11799;47.740;-3.390;2022-10-10T01:30:39;101040.53;;;15.65;82.41
23261;BME280;11799;47.740;-3.390;2022-10-10T01:33:23;101050.19;;;15.66;82.64
23261;BME280;11799;47.740;-3.390;2022-10-10T01:36:02;101043.34;;;15.64;82.93
23261;BME280;11799;47.740;-3.390;2022-10-10T01:38:46;101047.81;;;15.63;82.81
23261;BME280;11799;47.740;-3.390;2022-10-10T01:41:22;101042.50;;;15.63;83.01
23261;BME280;11799;47.740;-3.390;2022-10-10T01:43:56;101043.34;;;15.64;83.31
23261;BME280;11799;47.740;-3.390;2022-10-10T01:46:23;101042.34;;;15.65;83.07
23261;BME280;11799;47.740;-3.390;2022-10-10T01:48:51;101049.50;;;15.64;83.17
23261;BME280;11799;47.740;-3.390;2022-10-10T01:59:43;101056.50;;;15.65;82.83
23261;BME280;11799;47.740;-3.390;2022-10-10T02:02:19;101053.69;;;15.67;82.81
23261;BME280;11799;47.740;-3.390;2022-10-10T02:04:52;101055.66;;;15.65;82.93
23261;BME280;11799;47.740;-3.390;2022-10-10T02:07:31;101055.66;;;15.65;82.83
23261;BME280;11799;47.740;-3.390;2022-10-10T02:09:59;101042.50;;;15.63;82.88
23261;BME280;11799;47.740;-3.390;2022-10-10T02:12:27;101046.00;;;15.64;83.00
23261;BME280;11799;47.740;-3.390;2022-10-10T02:14:57;101041.66;;;15.63;82.97
23261;BME280;11799;47.740;-3.390;2022-10-10T02:17:26;101056.78;;;15.62;82.78
23261;BME280;11799;47.740;-3.390;2022-10-10T02:19:54;101054.97;;;15.63;82.96
23261;BME280;11799;47.740;-3.390;2022-10-10T02:22:22;101053.16;;;15.63;83.33
23261;BME280;11799;47.740;-3.390;2022-10-10T02:24:50;101042.50;;;15.63;83.46
23261;BME280;11799;47.740;-3.390;2022-10-10T02:30:06;101048.50;;;15.65;83.89
23261;BME280;11799;47.740;-3.390;2022-10-10T02:32:38;101050.03;;;15.68;83.99
23261;BME280;11799;47.740;-3.390;2022-10-10T02:35:12;101050.75;;;15.70;84.59
23261;BME280;11799;47.740;-3.390;2022-10-10T02:37:40;101058.72;;;15.70;84.71
23261;BME280;11799;47.740;-3.390;2022-10-10T02:40:08;101056.75;;;15.72;84.71
23261;BME280;11799;47.740;-3.390;2022-10-10T02:42:35;101060.13;;;15.74;84.88
23261;BME280;11799;47.740;-3.390;2022-10-10T02:45:02;101059.13;;;15.75;84.72
23261;BME280;11799;47.740;-3.390;2022-10-10T02:47:29;101051.00;;;15.76;84.94
23261;BME280;11799;47.740;-3.390;2022-10-10T02:49:54;101059.81;;;15.77;84.70
23261;BME280;11799;47.740;-3.390;2022-10-10T02:52:20;101055.19;;;15.79;84.53
23261;BME280;11799;47.740;-3.390;2022-10-10T02:54:45;101060.38;;;15.80;84.45
23261;BME280;11799;47.740;-3.390;2022-10-10T02:57:11;101064.00;;;15.79;84.66
23261;BME280;11799;47.740;-3.390;2022-10-10T02:59:37;101061.06;;;15.82;84.80
23261;BME280;11799;47.740;-3.390;2022-10-10T03:02:02;101064.41;;;15.84;84.78
23261;BME280;11799;47.740;-3.390;2022-10-10T03:04:28;101060.06;;;15.83;84.67
23261;BME280;11799;47.740;-3.390;2022-10-10T03:06:54;101064.41;;;15.84;84.48
23261;BME280;11799;47.740;-3.390;2022-10-10T03:09:19;101064.84;;;15.80;84.35
23261;BME280;11799;47.740;-3.390;2022-10-10T03:11:45;101067.38;;;15.81;84.31
23261;BME280;11799;47.740;-3.390;2022-10-10T03:14:11;101065.53;;;15.82;84.13
23261;BME280;11799;47.740;-3.390;2022-10-10T03:16:36;101060.22;;;15.82;84.08
23261;BME280;11799;47.740;-3.390;2022-10-10T03:19:02;101064.00;;;15.79;84.26
23261;BME280;11799;47.740;-3.390;2022-10-10T03:21:28;101059.81;;;15.77;83.78
23261;BME280;11799;47.740;-3.390;2022-10-10T03:23:54;101058.97;;;15.76;83.66
23261;BME280;11799;47.740;-3.390;2022-10-10T03:26:20;101066.13;;;15.76;83.94
23261;BME280;11799;47.740;-3.390;2022-10-10T03:28:45;101080.28;;;15.76;84.00
23261;BME280;11799;47.740;-3.390;2022-10-10T03:31:11;101073.28;;;15.75;83.69
23261;BME280;11799;47.740;-3.390;2022-10-10T03:33:36;101082.09;;;15.76;83.48
23261;BME280;11799;47.740;-3.390;2022-10-10T03:36:02;101076.78;;;15.76;83.56
23261;BME280;11799;47.740;-3.390;2022-10-10T03:38:28;101084.06;;;15.74;83.80
23261;BME280;11799;47.740;-3.390;2022-10-10T03:40:53;101084.91;;;15.74;83.47
23261;BME280;11799;47.740;-3.390;2022-10-10T03:43:19;101084.06;;;15.74;83.66
23261;BME280;11799;47.740;-3.390;2022-10-10T03:45:47;101082.41;;;15.73;83.15
23261;BME280;11799;47.740;-3.390;2022-10-10T03:48:12;101082.41;;;15.73;83.43
23261;BME280;11799;47.740;-3.390;2022-10-10T03:50:38;101088.72;;;15.72;83.41
23261;BME280;11799;47.740;-3.390;2022-10-10T03:53:05;101105.66;;;15.71;82.97
23261;BME280;11799;47.740;-3.390;2022-10-10T03:55:30;101099.50;;;15.70;83.27
23261;BME280;11799;47.740;-3.390;2022-10-10T03:57:56;101094.47;;;15.67;82.96
23261;BME280;11799;47.740;-3.390;2022-10-10T04:00:22;101101.47;;;15.68;83.05
23261;BME280;11799;47.740;-3.390;2022-10-10T04:02:48;101105.25;;;15.66;82.70
23261;BME280;11799;47.740;-3.390;2022-10-10T04:05:14;101104.41;;;15.65;82.77
23261;BME280;11799;47.740;-3.390;2022-10-10T04:07:39;101098.53;;;15.62;82.57
23261;BME280;11799;47.740;-3.390;2022-10-10T04:10:07;101099.25;;;15.54;82.52
23261;BME280;11799;47.740;-3.390;2022-10-10T04:12:33;101104.44;;;15.56;81.91
23261;BME280;11799;47.740;-3.390;2022-10-10T04:14:58;101104.72;;;15.52;82.28
23261;BME280;11799;47.740;-3.390;2022-10-10T04:17:24;101112.88;;;15.51;81.63
23261;BME280;11799;47.740;-3.390;2022-10-10T04:19:50;101115.94;;;15.46;81.70
23261;BME280;11799;47.740;-3.390;2022-10-10T04:22:15;101117.22;;;15.42;81.84
23261;BME280;11799;47.740;-3.390;2022-10-10T04:24:41;101120.88;;;15.41;81.83
23261;BME280;11799;47.740;-3.390;2022-10-10T04:27:07;101128.84;;;15.41;81.73
23261;BME280;11799;47.740;-3.390;2022-10-10T04:29:33;101136.13;;;15.39;81.70
23261;BME280;11799;47.740;-3.390;2022-10-10T04:31:58;101132.78;;;15.37;81.70
23261;BME280;11799;47.740;-3.390;2022-10-10T04:34:24;101141.88;;;15.35;81.29
23261;BME280;11799;47.740;-3.390;2022-10-10T04:36:50;101144.00;;;15.31;81.31
23261;BME280;11799;47.740;-3.390;2022-10-10T04:39:15;101146.09;;;15.28;81.47
23261;BME280;11799;47.740;-3.390;2022-10-10T04:41:41;101149.72;;;15.27;81.35
23261;BME280;11799;47.740;-3.390;2022-10-10T04:44:07;101149.03;;;15.25;81.39
23261;BME280;11799;47.740;-3.390;2022-10-10T04:46:32;101154.34;;;15.25;81.34
23261;BME280;11799;47.740;-3.390;2022-10-10T04:48:58;101158.13;;;15.22;81.09
23261;BME280;11799;47.740;-3.390;2022-10-10T04:51:24;101159.13;;;15.21;81.11
23261;BME280;11799;47.740;-3.390;2022-10-10T04:53:50;101155.75;;;15.19;81.00
23261;BME280;11799;47.740;-3.390;2022-10-10T04:56:15;101162.06;;;15.18;81.29
23261;BME280;11799;47.740;-3.390;2022-10-10T04:58:41;101151.69;;;15.15;81.14
23261;BME280;11799;47.740;-3.390;2022-10-10T05:01:06;101153.09;;;15.19;81.46
23261;BME280;11799;47.740;-3.390;2022-10-10T05:03:32;101150.44;;;15.19;81.48
23261;BME280;11799;47.740;-3.390;2022-10-10T05:05:58;101154.78;;;15.20;81.63
23261;BME280;11799;47.740;-3.390;2022-10-10T05:08:23;101153.09;;;15.19;81.54
23261;BME280;11799;47.740;-3.390;2022-10-10T05:10:51;101152.13;;;15.20;81.58
23261;BME280;11799;47.740;-3.390;2022-10-10T05:13:17;101152.41;;;15.17;81.69
23261;BME280;11799;47.740;-3.390;2022-10-10T05:15:43;101157.56;;;15.18;81.59
23261;BME280;11799;47.740;-3.390;2022-10-10T05:18:09;101158.56;;;15.17;81.43
23261;BME280;11799;47.740;-3.390;2022-10-10T05:20:35;101161.22;;;15.17;81.32
23261;BME280;11799;47.740;-3.390;2022-10-10T05:23:01;101160.50;;;15.15;81.36
23261;BME280;11799;47.740;-3.390;2022-10-10T05:25:27;101163.88;;;15.17;81.84
23261;BME280;11799;47.740;-3.390;2022-10-10T05:27:53;101160.66;;;15.14;81.64
23261;BME280;11799;47.740;-3.390;2022-10-10T05:30:19;101163.31;;;15.14;82.09
23261;BME280;11799;47.740;-3.390;2022-10-10T05:32:44;101172.28;;;15.13;82.17
23261;BME280;11799;47.740;-3.390;2022-10-10T05:35:10;101183.47;;;15.16;82.33
23261;BME280;11799;47.740;-3.390;2022-10-10T05:37:36;101176.75;;;15.12;82.08
23261;BME280;11799;47.740;-3.390;2022-10-10T05:40:02;101180.13;;;15.14;82.12
23261;BME280;11799;47.740;-3.390;2022-10-10T05:42:28;101174.09;;;15.12;81.63
23261;BME280;11799;47.740;-3.390;2022-10-10T05:44:54;101183.06;;;15.11;82.06
23261;BME280;11799;47.740;-3.390;2022-10-10T05:47:19;101186.56;;;15.12;81.69
23261;BME280;11799;47.740;-3.390;2022-10-10T05:49:45;101186.69;;;15.10;81.83
23261;BME280;11799;47.740;-3.390;2022-10-10T05:52:10;101198.19;;;15.11;81.83
23261;BME280;11799;47.740;-3.390;2022-10-10T05:54:36;101200.13;;;15.09;81.52
23261;BME280;11799;47.740;-3.390;2022-10-10T05:57:02;101208.13;;;15.09;81.87
23261;BME280;11799;47.740;-3.390;2022-10-10T05:59:28;101203.91;;;15.06;81.73
23261;BME280;11799;47.740;-3.390;2022-10-10T06:01:54;101203.91;;;15.06;81.88
23261;BME280;11799;47.740;-3.390;2022-10-10T06:04:21;101211.88;;;15.06;81.82
23261;BME280;11799;47.740;-3.390;2022-10-10T06:06:48;101209.09;;;15.08;81.84
23261;BME280;11799;47.740;-3.390;2022-10-10T06:09:13;101208.38;;;15.06;81.43
23261;BME280;11799;47.740;-3.390;2022-10-10T06:11:39;101211.88;;;15.06;82.00
23261;BME280;11799;47.740;-3.390;2022-10-10T06:14:04;101212.72;;;15.07;81.94
23261;BME280;11799;47.740;-3.390;2022-10-10T06:16:30;101232.19;;;15.07;81.91
23261;BME280;11799;47.740;-3.390;2022-10-10T06:18:56;101228.69;;;15.07;81.86
23261;BME280;11799;47.740;-3.390;2022-10-10T06:21:22;101238.34;;;15.08;81.84
23261;BME280;11799;47.740;-3.390;2022-10-10T06:23:47;101241.84;;;15.08;81.74
23261;BME280;11799;47.740;-3.390;2022-10-10T06:26:14;101239.19;;;15.08;81.76
23261;BME280;11799;47.740;-3.390;2022-10-10T06:28:39;101249.84;;;15.08;82.32
23261;BME280;11799;47.740;-3.390;2022-10-10T06:31:07;101255.16;;;15.08;81.97
23261;BME280;11799;47.740;-3.390;2022-10-10T06:33:35;101256.84;;;15.09;81.65
23261;BME280;11799;47.740;-3.390;2022-10-10T06:36:06;101264.81;;;15.09;81.88
23261;BME280;11799;47.740;-3.390;2022-10-10T06:38:37;101276.16;;;15.11;82.23
23261;BME280;11799;47.740;-3.390;2022-10-10T06:41:04;101270.13;;;15.09;82.02
23261;BME280;11799;47.740;-3.390;2022-10-10T06:43:30;101280.63;;;15.11;82.17
23261;BME280;11799;47.740;-3.390;2022-10-10T06:45:56;101277.97;;;15.11;81.93
23261;BME280;11799;47.740;-3.390;2022-10-10T06:48:22;101284.13;;;15.11;82.14
23261;BME280;11799;47.740;-3.390;2022-10-10T06:51:02;101288.75;;;15.09;82.13
23261;BME280;11799;47.740;-3.390;2022-10-10T06:53:29;101293.94;;;15.11;82.09
23261;BME280;11799;47.740;-3.390;2022-10-10T06:55:56;101294.91;;;15.10;82.12
23261;BME280;11799;47.740;-3.390;2022-10-10T06:58:23;101301.22;;;15.09;82.14
23261;BME280;11799;47.740;-3.390;2022-10-10T07:00:50;101301.22;;;15.09;82.19
23261;BME280;11799;47.740;-3.390;2022-10-10T07:03:16;101309.06;;;15.10;82.38
23261;BME280;11799;47.740;-3.390;2022-10-10T07:05:42;101321.38;;;15.11;82.39
23261;BME280;11799;47.740;-3.390;2022-10-10T07:08:08;101324.16;;;15.10;82.15
23261;BME280;11799;47.740;-3.390;2022-10-10T07:10:34;101332.84;;;15.12;82.60
23261;BME280;11799;47.740;-3.390;2022-10-10T07:13:01;101328.38;;;15.12;82.26
23261;BME280;11799;47.740;-3.390;2022-10-10T07:15:26;101328.25;;;15.14;82.45
23261;BME280;11799;47.740;-3.390;2022-10-10T07:17:56;101334.28;;;15.16;82.38
23261;BME280;11799;47.740;-3.390;2022-10-10T07:20:23;101335.25;;;15.15;82.46
23261;BME280;11799;47.740;-3.390;2022-10-10T07:22:48;101343.94;;;15.17;82.34
23261;BME280;11799;47.740;-3.390;2022-10-10T07:25:14;101353.47;;;15.19;82.68
23261;BME280;11799;47.740;-3.390;2022-10-10T07:27:39;101356.00;;;15.21;82.63
23261;BME280;11799;47.740;-3.390;2022-10-10T07:30:05;101361.88;;;15.25;82.64
23261;BME280;11799;47.740;-3.390;2022-10-10T07:32:31;101364.28;;;15.28;82.75
23261;BME280;11799;47.740;-3.390;2022-10-10T07:34:57;101368.47;;;15.30;83.15
23261;BME280;11799;47.740;-3.390;2022-10-10T07:37:25;101372.69;;;15.33;83.08
23261;BME280;11799;47.740;-3.390;2022-10-10T07:39:51;101377.75;;;15.36;83.03
23261;BME280;11799;47.740;-3.390;2022-10-10T07:42:18;101384.47;;;15.40;82.98
23261;BME280;11799;47.740;-3.390;2022-10-10T07:44:43;101390.63;;;15.40;83.02
23261;BME280;11799;47.740;-3.390;2022-10-10T07:47:09;101393.72;;;15.45;83.34
23261;BME280;11799;47.740;-3.390;2022-10-10T07:49:35;101397.09;;;15.47;83.08
23261;BME280;11799;47.740;-3.390;2022-10-10T07:52:00;101410.00;;;15.52;83.01
23261;BME280;11799;47.740;-3.390;2022-10-10T07:54:27;101405.38;;;15.54;83.27
23261;BME280;11799;47.740;-3.390;2022-10-10T07:56:52;101402.59;;;15.56;83.55
23261;BME280;11799;47.740;-3.390;2022-10-10T07:59:18;101409.63;;;15.57;83.68
23261;BME280;11799;47.740;-3.390;2022-10-10T08:01:43;101407.66;;;15.59;83.70
23261;BME280;11799;47.740;-3.390;2022-10-10T08:04:09;101417.88;;;15.63;83.60
23261;BME280;11799;47.740;-3.390;2022-10-10T08:06:34;101418.56;;;15.65;83.88
23261;BME280;11799;47.740;-3.390;2022-10-10T08:09:00;101414.78;;;15.68;83.66
23261;BME280;11799;47.740;-3.390;2022-10-10T08:11:26;101422.38;;;15.72;83.91
23261;BME280;11799;47.740;-3.390;2022-10-10T08:13:51;101430.94;;;15.76;83.82
23261;BME280;11799;47.740;-3.390;2022-10-10T08:16:17;101439.63;;;15.78;83.89
23261;BME280;11799;47.740;-3.390;2022-10-10T08:18:43;101438.50;;;15.80;83.71
23261;BME280;11799;47.740;-3.390;2022-10-10T08:21:13;101447.19;;;15.82;84.03
23261;BME280;11799;47.740;-3.390;2022-10-10T08:23:40;101446.94;;;15.85;83.71
23261;BME280;11799;47.740;-3.390;2022-10-10T08:26:08;101458.16;;;15.89;83.74
23261;BME280;11799;47.740;-3.390;2022-10-10T08:28:35;101458.00;;;15.91;83.87
23261;BME280;11799;47.740;-3.390;2022-10-10T08:31:05;101463.91;;;15.94;84.00
23261;BME280;11799;47.740;-3.390;2022-10-10T08:33:31;101472.47;;;15.98;83.95
23261;BME280;11799;47.740;-3.390;2022-10-10T08:35:57;101479.19;;;16.02;83.88
23261;BME280;11799;47.740;-3.390;2022-10-10T08:38:22;101488.59;;;16.06;83.96
23261;BME280;11799;47.740;-3.390;2022-10-10T08:40:52;101490.16;;;16.08;83.44
23261;BME280;11799;47.740;-3.390;2022-10-10T08:43:32;101493.66;;;16.09;83.88
23261;BME280;11799;47.740;-3.390;2022-10-10T08:46:09;101492.41;;;16.13;83.57
23261;BME280;11799;47.740;-3.390;2022-10-10T08:48:39;101494.63;;;16.17;83.57
23261;BME280;11799;47.740;-3.390;2022-10-10T08:51:09;101497.97;;;16.19;83.54
23261;BME280;11799;47.740;-3.390;2022-10-10T08:53:45;101498.28;;;16.26;83.52
23261;BME280;11799;47.740;-3.390;2022-10-10T08:56:17;101494.63;;;16.27;83.27
23261;BME280;11799;47.740;-3.390;2022-10-10T08:58:47;101500.22;;;16.34;83.11
23261;BME280;11799;47.740;-3.390;2022-10-10T09:01:22;101499.97;;;16.37;83.02
23261;BME280;11799;47.740;-3.390;2022-10-10T09:04:00;101502.19;;;16.41;83.17
23261;BME280;11799;47.740;-3.390;2022-10-10T09:14:54;101522.28;;;16.55;82.54
23261;BME280;11799;47.740;-3.390;2022-10-10T09:23:38;101531.25;;;16.64;82.26
23261;BME280;11799;47.740;-3.390;2022-10-10T09:26:11;101540.00;;;16.66;81.92
23261;BME280;11799;47.740;-3.390;2022-10-10T09:34:05;101552.63;;;16.73;81.70
23261;BME280;11799;47.740;-3.390;2022-10-10T09:36:35;101549.81;;;16.75;81.40
23261;BME280;11799;47.740;-3.390;2022-10-10T09:41:58;101555.25;;;16.83;81.17
23261;BME280;11799;47.740;-3.390;2022-10-10T09:44:25;101561.97;;;16.87;80.68
23261;BME280;11799;47.740;-3.390;2022-10-10T09:46:51;101562.25;;;16.94;80.30
23261;BME280;11799;47.740;-3.390;2022-10-10T09:49:18;101562.81;;;16.97;80.07
23261;BME280;11799;47.740;-3.390;2022-10-10T09:51:45;101563.22;;;17.02;80.32
23261;BME280;11799;47.740;-3.390;2022-10-10T09:54:13;101570.81;;;17.07;80.13
23261;BME280;11799;47.740;-3.390;2022-10-10T09:56:48;101561.41;;;17.12;79.94
23261;BME280;11799;47.740;-3.390;2022-10-10T09:59:34;101564.19;;;17.21;79.91
23261;BME280;11799;47.740;-3.390;2022-10-10T10:02:02;101567.13;;;17.27;79.29
23261;BME280;11799;47.740;-3.390;2022-10-10T10:04:31;101571.03;;;17.33;79.18
23261;BME280;11799;47.740;-3.390;2022-10-10T10:07:19;101575.91;;;17.37;79.04
23261;BME280;11799;47.740;-3.390;2022-10-10T10:09:50;101578.28;;;17.40;78.59
23261;BME280;11799;47.740;-3.390;2022-10-10T10:12:22;101585.19;;;17.43;77.87
23261;BME280;11799;47.740;-3.390;2022-10-10T10:14:50;101580.38;;;17.46;78.21
23261;BME280;11799;47.740;-3.390;2022-10-10T10:17:21;101588.09;;;17.49;77.99
23261;BME280;11799;47.740;-3.390;2022-10-10T10:19:48;101587.81;;;17.53;77.88
23261;BME280;11799;47.740;-3.390;2022-10-10T10:22:24;101593.72;;;17.56;77.39
23261;BME280;11799;47.740;-3.390;2022-10-10T10:24:51;101594.00;;;17.53;76.87
23261;BME280;11799;47.740;-3.390;2022-10-10T10:27:19;101600.59;;;17.59;77.18
23261;BME280;11799;47.740;-3.390;2022-10-10T10:29:47;101601.28;;;17.61;76.88
23261;BME280;11799;47.740;-3.390;2022-10-10T10:49:30;101618.84;;;17.63;76.00
23261;BME280;11799;47.740;-3.390;2022-10-10T10:57:44;101640.94;;;17.65;75.97
23261;BME280;11799;47.740;-3.390;2022-10-10T11:00:19;101633.91;;;17.64;76.25
23261;BME280;11799;47.740;-3.390;2022-10-10T11:11:58;101649.94;;;17.74;76.06
23261;BME280;11799;47.740;-3.390;2022-10-10T11:14:43;101654.00;;;17.78;76.07
23261;BME280;11799;47.740;-3.390;2022-10-10T11:17:19;101660.88;;;17.80;75.95
23261;BME280;11799;47.740;-3.390;2022-10-10T11:19:52;101653.69;;;17.81;75.84
23261;BME280;11799;47.740;-3.390;2022-10-10T11:22:25;101657.63;;;17.87;76.31
23261;BME280;11799;47.740;-3.390;2022-10-10T11:25:05;101656.16;;;17.92;76.38
23261;BME280;11799;47.740;-3.390;2022-10-10T11:27:53;101667.81;;;18.01;75.49
23261;BME280;11799;47.740;-3.390;2022-10-10T11:30:23;101668.75;;;18.09;75.79
23261;BME280;11799;47.740;-3.390;2022-10-10T11:33:01;101666.63;;;18.13;75.64
23261;BME280;11799;47.740;-3.390;2022-10-10T11:43:14;101679.63;;;18.35;74.05
23261;BME280;11799;47.740;-3.390;2022-10-10T11:45:45;101679.47;;;18.37;74.42
23261;BME280;11799;47.740;-3.390;2022-10-10T11:48:22;101682.69;;;18.40;74.34
23261;BME280;11799;47.740;-3.390;2022-10-10T11:50:54;101682.38;;;18.43;74.17
23261;BME280;11799;47.740;-3.390;2022-10-10T11:53:42;101677.88;;;18.44;73.91
23261;BME280;11799;47.740;-3.390;2022-10-10T11:56:29;101679.03;;;18.41;73.53
23261;BME280;11799;47.740;-3.390;2022-10-10T11:59:02;101681.28;;;18.36;73.23
23261;BME280;11799;47.740;-3.390;2022-10-10T12:01:31;101692.13;;;18.35;73.12
23261;BME280;11799;47.740;-3.390;2022-10-10T12:03:59;101688.91;;;18.31;73.43
23261;BME280;11799;47.740;-3.390;2022-10-10T12:11:49;101708.56;;;18.12;73.28
23261;BME280;11799;47.740;-3.390;2022-10-10T12:14:18;101709.28;;;18.05;73.39
23261;BME280;11799;47.740;-3.390;2022-10-10T12:16:46;101712.53;;;17.99;73.50
23261;BME280;11799;47.740;-3.390;2022-10-10T12:19:16;101709.59;;;17.92;73.53
23261;BME280;11799;47.740;-3.390;2022-10-10T12:22:04;101706.69;;;17.86;73.59
23261;BME280;11799;47.740;-3.390;2022-10-10T12:24:32;101708.97;;;17.80;73.62
23261;BME280;11799;47.740;-3.390;2022-10-10T12:29:48;101713.47;;;17.70;73.77
23261;BME280;11799;47.740;-3.390;2022-10-10T12:35:40;101719.78;;;17.60;74.48
23261;BME280;11799;47.740;-3.390;2022-10-10T12:40:32;101719.38;;;17.55;74.88
23261;BME280;11799;47.740;-3.390;2022-10-10T12:43:19;101713.34;;;17.53;74.64
23261;BME280;11799;47.740;-3.390;2022-10-10T12:48:21;101711.09;;;17.48;74.96
23261;BME280;11799;47.740;-3.390;2022-10-10T12:50:56;101723.75;;;17.46;75.07
23261;BME280;11799;47.740;-3.390;2022-10-10T12:53:25;101716.00;;;17.43;75.04
23261;BME280;11799;47.740;-3.390;2022-10-10T12:55:55;101722.34;;;17.42;75.36
23261;BME280;11799;47.740;-3.390;2022-10-10T13:00:54;101725.28;;;17.39;75.04
23261;BME280;11799;47.740;-3.390;2022-10-10T13:03:27;101721.91;;;17.37;75.21
23261;BME280;11799;47.740;-3.390;2022-10-10T13:05:58;101730.91;;;17.36;75.04
23261;BME280;11799;47.740;-3.390;2022-10-10T13:08:27;101727.41;;;17.35;75.11
23261;BME280;11799;47.740;-3.390;2022-10-10T13:11:14;101728.38;;;17.34;75.20
23261;BME280;11799;47.740;-3.390;2022-10-10T13:13:51;101728.38;;;17.34;75.25
23261;BME280;11799;47.740;-3.390;2022-10-10T13:16:20;101735.53;;;17.34;75.48
23261;BME280;11799;47.740;-3.390;2022-10-10T13:18:55;101732.03;;;17.33;75.55
23261;BME280;11799;47.740;-3.390;2022-10-10T13:21:26;101735.53;;;17.34;75.14
23261;BME280;11799;47.740;-3.390;2022-10-10T13:23:57;101729.22;;;17.35;75.27
23261;BME280;11799;47.740;-3.390;2022-10-10T13:26:30;101717.69;;;17.34;74.97
23261;BME280;11799;47.740;-3.390;2022-10-10T13:28:59;101733.44;;;17.37;75.36
23261;BME280;11799;47.740;-3.390;2022-10-10T13:31:28;101733.28;;;17.39;75.25
23261;BME280;11799;47.740;-3.390;2022-10-10T13:34:05;101726.00;;;17.41;75.40
23261;BME280;11799;47.740;-3.390;2022-10-10T13:36:32;101725.44;;;17.47;74.54
23261;BME280;11799;47.740;-3.390;2022-10-10T13:38:58;101729.63;;;17.49;74.92
23261;BME280;11799;47.740;-3.390;2022-10-10T13:41:25;101726.69;;;17.53;74.71
23261;BME280;11799;47.740;-3.390;2022-10-10T13:43:51;101735.13;;;17.58;74.91
23261;BME280;11799;47.740;-3.390;2022-10-10T13:46:21;101737.50;;;17.61;75.38
23261;BME280;11799;47.740;-3.390;2022-10-10T13:48:47;101732.47;;;17.67;75.00
23261;BME280;11799;47.740;-3.390;2022-10-10T13:51:15;101731.06;;;17.73;74.25
23261;BME280;11799;47.740;-3.390;2022-10-10T13:56:33;101725.97;;;17.89;73.32
23261;BME280;11799;47.740;-3.390;2022-10-10T14:01:36;101722.50;;;18.06;72.44
23261;BME280;11799;47.740;-3.390;2022-10-10T14:06:54;101735.56;;;18.09;71.24
23261;BME280;11799;47.740;-3.390;2022-10-10T14:11:48;101746.81;;;18.13;71.57
23261;BME280;11799;47.740;-3.390;2022-10-10T14:17:05;101753.00;;;18.13;70.56
23261;BME280;11799;47.740;-3.390;2022-10-10T14:19:31;101750.34;;;18.13;70.35
23261;BME280;11799;47.740;-3.390;2022-10-10T14:21:57;101762.84;;;18.13;70.33
23261;BME280;11799;47.740;-3.390;2022-10-10T14:24:23;101759.63;;;18.09;70.34
23261;BME280;11799;47.740;-3.390;2022-10-10T14:26:50;101759.94;;;18.06;70.25
23261;BME280;11799;47.740;-3.390;2022-10-10T14:29:16;101768.63;;;18.08;70.38
23261;BME280;11799;47.740;-3.390;2022-10-10T14:31:44;101769.78;;;18.06;70.24
23261;BME280;11799;47.740;-3.390;2022-10-10T14:34:10;101783.28;;;18.04;70.23
23261;BME280;11799;47.740;-3.390;2022-10-10T14:36:39;101774.41;;;18.04;70.61
23261;BME280;11799;47.740;-3.390;2022-10-10T14:39:06;101787.78;;;18.04;69.98
23261;BME280;11799;47.740;-3.390;2022-10-10T14:41:32;101786.09;;;18.03;69.80